sensor_id;sensor_type;location;lat;lon;timestamp;P1;durP1;ratioP1;P2;durP2;ratioP2
20671;SDS011;10495;50.922;4.760;2023-09-18T00:01:39;8.90;;;5.97;;
20671;SDS011;10495;50.922;4.760;2023-09-18T00:04:05;7.77;;;5.57;;
20671;SDS011;10495;50.922;4.760;2023-09-18T00:06:32;10.87;;;6.37;;
20671;SDS011;10495;50.922;4.760;2023-09-18T00:08:58;7.13;;;5.60;;
20671;SDS011;10495;50.922;4.760;2023-09-18T00:11:23;7.33;;;6.33;;
20671;SDS011;10495;50.922;4.760;2023-09-18T00:13:49;10.73;;;6.05;;
20671;SDS011;10495;50.922;4.760;2023-09-18T00:16:15;9.43;;;6.20;;
20671;SDS011;10495;50.922;4.760;2023-09-18T00:18:41;13.23;;;6.57;;
20671;SDS011;10495;50.922;4.760;2023-09-18T00:21:09;9.40;;;5.80;;
20671;SDS011;10495;50.922;4.760;2023-09-18T00:23:35;7.20;;;5.90;;
20671;SDS011;10495;50.922;4.760;2023-09-18T00:26:04;6.85;;;4.60;;
20671;SDS011;10495;50.922;4.760;2023-09-18T00:28:30;5.23;;;4.73;;
20671;SDS011;10495;50.922;4.760;2023-09-18T00:30:55;6.07;;;4.82;;
20671;SDS011;10495;50.922;4.760;2023-09-18T00:33:21;6.73;;;4.67;;
20671;SDS011;10495;50.922;4.760;2023-09-18T00:35:47;10.80;;;5.63;;
20671;SDS011;10495;50.922;4.760;2023-09-18T00:38:13;6.00;;;5.37;;
20671;SDS011;10495;50.922;4.760;2023-09-18T00:40:40;7.30;;;5.53;;
20671;SDS011;10495;50.922;4.760;2023-09-18T00:43:06;5.93;;;5.20;;
20671;SDS011;10495;50.922;4.760;2023-09-18T00:45:32;5.55;;;4.90;;
20671;SDS011;10495;50.922;4.760;2023-09-18T00:47:58;6.20;;;4.63;;
20671;SDS011;10495;50.922;4.760;2023-09-18T00:50:24;5.57;;;5.05;;
20671;SDS011;10495;50.922;4.760;2023-09-18T00:52:49;7.90;;;6.20;;
20671;SDS011;10495;50.922;4.760;2023-09-18T00:55:15;6.90;;;6.17;;
20671;SDS011;10495;50.922;4.760;2023-09-18T00:57:41;8.20;;;6.13;;
20671;SDS011;10495;50.922;4.760;2023-09-18T01:00:08;8.73;;;6.00;;
20671;SDS011;10495;50.922;4.760;2023-09-18T01:02:34;6.53;;;5.83;;
20671;SDS011;10495;50.922;4.760;2023-09-18T01:05:00;7.85;;;5.78;;
20671;SDS011;10495;50.922;4.760;2023-09-18T01:07:26;7.80;;;5.67;;
20671;SDS011;10495;50.922;4.760;2023-09-18T01:09:53;5.93;;;5.18;;
20671;SDS011;10495;50.922;4.760;2023-09-18T01:15:14;12.10;;;6.50;;
20671;SDS011;10495;50.922;4.760;2023-09-18T01:17:47;9.80;;;5.88;;
20671;SDS011;10495;50.922;4.760;2023-09-18T01:20:13;6.95;;;5.97;;
20671;SDS011;10495;50.922;4.760;2023-09-18T01:22:39;10.35;;;6.10;;
20671;SDS011;10495;50.922;4.760;2023-09-18T01:25:05;12.57;;;6.60;;
20671;SDS011;10495;50.922;4.760;2023-09-18T01:27:32;13.47;;;5.80;;
20671;SDS011;10495;50.922;4.760;2023-09-18T01:29:57;6.53;;;5.47;;
20671;SDS011;10495;50.922;4.760;2023-09-18T01:32:24;12.03;;;6.37;;
20671;SDS011;10495;50.922;4.760;2023-09-18T01:34:53;10.43;;;6.17;;
20671;SDS011;10495;50.922;4.760;2023-09-18T01:37:21;8.35;;;5.10;;
20671;SDS011;10495;50.922;4.760;2023-09-18T01:39:49;6.90;;;5.00;;
20671;SDS011;10495;50.922;4.760;2023-09-18T01:42:16;8.60;;;6.63;;
20671;SDS011;10495;50.922;4.760;2023-09-18T01:44:43;7.40;;;5.40;;
20671;SDS011;10495;50.922;4.760;2023-09-18T01:47:11;6.90;;;6.00;;
20671;SDS011;10495;50.922;4.760;2023-09-18T01:49:39;11.05;;;6.55;;
20671;SDS011;10495;50.922;4.760;2023-09-18T01:52:06;11.50;;;6.03;;
20671;SDS011;10495;50.922;4.760;2023-09-18T01:54:33;10.52;;;6.57;;
20671;SDS011;10495;50.922;4.760;2023-09-18T01:56:59;9.43;;;6.07;;
20671;SDS011;10495;50.922;4.760;2023-09-18T01:59:26;9.27;;;6.18;;
20671;SDS011;10495;50.922;4.760;2023-09-18T02:01:52;7.85;;;6.78;;
20671;SDS011;10495;50.922;4.760;2023-09-18T02:04:21;8.75;;;6.38;;
20671;SDS011;10495;50.922;4.760;2023-09-18T02:06:48;8.40;;;5.95;;
20671;SDS011;10495;50.922;4.760;2023-09-18T02:09:15;11.38;;;7.40;;
20671;SDS011;10495;50.922;4.760;2023-09-18T02:11:42;9.85;;;6.57;;
20671;SDS011;10495;50.922;4.760;2023-09-18T02:14:09;8.90;;;6.23;;
20671;SDS011;10495;50.922;4.760;2023-09-18T02:16:35;9.13;;;6.53;;
20671;SDS011;10495;50.922;4.760;2023-09-18T02:19:06;11.23;;;6.47;;
20671;SDS011;10495;50.922;4.760;2023-09-18T02:21:32;8.97;;;5.63;;
20671;SDS011;10495;50.922;4.760;2023-09-18T02:23:58;7.82;;;5.50;;
20671;SDS011;10495;50.922;4.760;2023-09-18T02:26:24;8.45;;;5.90;;
20671;SDS011;10495;50.922;4.760;2023-09-18T02:28:53;10.40;;;6.70;;
20671;SDS011;10495;50.922;4.760;2023-09-18T02:31:20;9.33;;;6.57;;
20671;SDS011;10495;50.922;4.760;2023-09-18T02:33:47;7.20;;;5.90;;
20671;SDS011;10495;50.922;4.760;2023-09-18T02:36:13;8.60;;;6.33;;
20671;SDS011;10495;50.922;4.760;2023-09-18T02:38:39;7.27;;;5.40;;
20671;SDS011;10495;50.922;4.760;2023-09-18T02:41:05;9.65;;;6.45;;
20671;SDS011;10495;50.922;4.760;2023-09-18T02:43:30;9.97;;;6.33;;
20671;SDS011;10495;50.922;4.760;2023-09-18T02:45:56;7.17;;;5.80;;
20671;SDS011;10495;50.922;4.760;2023-09-18T02:48:22;10.60;;;6.60;;
20671;SDS011;10495;50.922;4.760;2023-09-18T02:50:47;7.97;;;5.73;;
20671;SDS011;10495;50.922;4.760;2023-09-18T02:53:20;7.93;;;5.20;;
20671;SDS011;10495;50.922;4.760;2023-09-18T02:55:48;7.55;;;5.32;;
20671;SDS011;10495;50.922;4.760;2023-09-18T02:58:18;9.52;;;5.55;;
20671;SDS011;10495;50.922;4.760;2023-09-18T03:00:46;7.53;;;5.10;;
20671;SDS011;10495;50.922;4.760;2023-09-18T03:03:13;7.87;;;4.93;;
20671;SDS011;10495;50.922;4.760;2023-09-18T03:05:39;5.80;;;4.67;;
20671;SDS011;10495;50.922;4.760;2023-09-18T03:08:06;9.30;;;5.25;;
20671;SDS011;10495;50.922;4.760;2023-09-18T03:10:33;8.50;;;4.57;;
20671;SDS011;10495;50.922;4.760;2023-09-18T03:13:01;7.07;;;5.60;;
20671;SDS011;10495;50.922;4.760;2023-09-18T03:15:27;7.07;;;4.77;;
20671;SDS011;10495;50.922;4.760;2023-09-18T03:17:53;4.82;;;4.07;;
20671;SDS011;10495;50.922;4.760;2023-09-18T03:20:21;5.95;;;4.15;;
20671;SDS011;10495;50.922;4.760;2023-09-18T03:22:48;6.97;;;4.43;;
20671;SDS011;10495;50.922;4.760;2023-09-18T03:25:13;6.23;;;4.60;;
20671;SDS011;10495;50.922;4.760;2023-09-18T03:27:39;7.93;;;4.30;;
20671;SDS011;10495;50.922;4.760;2023-09-18T03:30:05;7.18;;;4.65;;
20671;SDS011;10495;50.922;4.760;2023-09-18T03:32:31;5.03;;;3.77;;
20671;SDS011;10495;50.922;4.760;2023-09-18T03:34:57;9.27;;;5.03;;
20671;SDS011;10495;50.922;4.760;2023-09-18T03:37:23;5.60;;;3.80;;
20671;SDS011;10495;50.922;4.760;2023-09-18T03:39:48;4.57;;;3.60;;
20671;SDS011;10495;50.922;4.760;2023-09-18T03:42:14;4.03;;;3.38;;
20671;SDS011;10495;50.922;4.760;2023-09-18T03:44:39;4.60;;;3.40;;
20671;SDS011;10495;50.922;4.760;2023-09-18T03:47:05;7.47;;;3.50;;
20671;SDS011;10495;50.922;4.760;2023-09-18T03:49:31;6.23;;;3.27;;
20671;SDS011;10495;50.922;4.760;2023-09-18T03:51:57;5.87;;;3.37;;
20671;SDS011;10495;50.922;4.760;2023-09-18T03:54:22;7.07;;;3.33;;
20671;SDS011;10495;50.922;4.760;2023-09-18T03:56:48;5.07;;;2.78;;
20671;SDS011;10495;50.922;4.760;2023-09-18T03:59:13;3.83;;;3.20;;
20671;SDS011;10495;50.922;4.760;2023-09-18T04:01:39;3.45;;;3.08;;
20671;SDS011;10495;50.922;4.760;2023-09-18T04:04:05;4.63;;;2.70;;
20671;SDS011;10495;50.922;4.760;2023-09-18T04:06:40;4.23;;;2.17;;
20671;SDS011;10495;50.922;4.760;2023-09-18T04:09:11;3.90;;;2.90;;
20671;SDS011;10495;50.922;4.760;2023-09-18T04:11:37;4.83;;;2.00;;
20671;SDS011;10495;50.922;4.760;2023-09-18T04:14:03;3.30;;;2.10;;
20671;SDS011;10495;50.922;4.760;2023-09-18T04:16:28;3.93;;;2.00;;
20671;SDS011;10495;50.922;4.760;2023-09-18T04:19:00;2.57;;;1.90;;
20671;SDS011;10495;50.922;4.760;2023-09-18T04:21:26;5.53;;;2.17;;
20671;SDS011;10495;50.922;4.760;2023-09-18T04:23:52;3.80;;;1.90;;
20671;SDS011;10495;50.922;4.760;2023-09-18T04:26:22;8.17;;;2.20;;
20671;SDS011;10495;50.922;4.760;2023-09-18T04:28:48;1.90;;;1.60;;
20671;SDS011;10495;50.922;4.760;2023-09-18T04:31:14;2.97;;;1.70;;
20671;SDS011;10495;50.922;4.760;2023-09-18T04:33:41;1.77;;;1.67;;
20671;SDS011;10495;50.922;4.760;2023-09-18T04:36:07;1.90;;;1.60;;
20671;SDS011;10495;50.922;4.760;2023-09-18T04:38:33;2.73;;;1.60;;
20671;SDS011;10495;50.922;4.760;2023-09-18T04:41:01;2.13;;;1.47;;
20671;SDS011;10495;50.922;4.760;2023-09-18T04:43:27;2.33;;;1.70;;
20671;SDS011;10495;50.922;4.760;2023-09-18T04:45:55;3.90;;;1.67;;
20671;SDS011;10495;50.922;4.760;2023-09-18T04:48:21;6.70;;;1.77;;
20671;SDS011;10495;50.922;4.760;2023-09-18T04:50:46;3.00;;;1.60;;
20671;SDS011;10495;50.922;4.760;2023-09-18T04:53:13;4.07;;;1.60;;
20671;SDS011;10495;50.922;4.760;2023-09-18T04:55:39;4.77;;;1.80;;
20671;SDS011;10495;50.922;4.760;2023-09-18T04:58:05;4.97;;;1.77;;
20671;SDS011;10495;50.922;4.760;2023-09-18T05:00:31;5.47;;;1.80;;
20671;SDS011;10495;50.922;4.760;2023-09-18T05:02:58;2.97;;;1.70;;
20671;SDS011;10495;50.922;4.760;2023-09-18T05:05:26;2.40;;;1.53;;
20671;SDS011;10495;50.922;4.760;2023-09-18T05:07:53;3.58;;;1.50;;
20671;SDS011;10495;50.922;4.760;2023-09-18T05:10:18;3.10;;;1.70;;
20671;SDS011;10495;50.922;4.760;2023-09-18T05:12:44;2.03;;;1.50;;
20671;SDS011;10495;50.922;4.760;2023-09-18T05:15:10;3.75;;;1.83;;
20671;SDS011;10495;50.922;4.760;2023-09-18T05:17:44;4.80;;;2.13;;
20671;SDS011;10495;50.922;4.760;2023-09-18T05:20:19;3.00;;;1.70;;
20671;SDS011;10495;50.922;4.760;2023-09-18T05:22:45;3.50;;;2.13;;
20671;SDS011;10495;50.922;4.760;2023-09-18T05:25:10;2.13;;;1.67;;
20671;SDS011;10495;50.922;4.760;2023-09-18T05:27:37;5.00;;;1.60;;
20671;SDS011;10495;50.922;4.760;2023-09-18T05:30:12;7.47;;;2.10;;
20671;SDS011;10495;50.922;4.760;2023-09-18T05:32:43;3.57;;;1.80;;
20671;SDS011;10495;50.922;4.760;2023-09-18T05:35:09;3.80;;;1.87;;
20671;SDS011;10495;50.922;4.760;2023-09-18T05:37:39;3.47;;;1.90;;
20671;SDS011;10495;50.922;4.760;2023-09-18T05:40:09;2.90;;;2.07;;
20671;SDS011;10495;50.922;4.760;2023-09-18T05:42:39;3.43;;;1.80;;
20671;SDS011;10495;50.922;4.760;2023-09-18T05:45:11;3.20;;;1.60;;
20671;SDS011;10495;50.922;4.760;2023-09-18T05:47:42;4.28;;;1.73;;
20671;SDS011;10495;50.922;4.760;2023-09-18T05:50:08;3.00;;;1.80;;
20671;SDS011;10495;50.922;4.760;2023-09-18T05:52:39;2.13;;;1.90;;
20671;SDS011;10495;50.922;4.760;2023-09-18T05:55:05;4.67;;;1.73;;
20671;SDS011;10495;50.922;4.760;2023-09-18T05:57:34;6.70;;;1.90;;
20671;SDS011;10495;50.922;4.760;2023-09-18T06:00:00;4.80;;;2.50;;
20671;SDS011;10495;50.922;4.760;2023-09-18T06:02:26;2.17;;;1.80;;
20671;SDS011;10495;50.922;4.760;2023-09-18T06:04:58;6.20;;;1.67;;
20671;SDS011;10495;50.922;4.760;2023-09-18T06:07:31;1.53;;;1.30;;
20671;SDS011;10495;50.922;4.760;2023-09-18T06:09:57;3.53;;;1.80;;
20671;SDS011;10495;50.922;4.760;2023-09-18T06:12:23;3.20;;;1.53;;
20671;SDS011;10495;50.922;4.760;2023-09-18T06:14:50;3.77;;;1.63;;
20671;SDS011;10495;50.922;4.760;2023-09-18T06:17:16;4.73;;;1.63;;
20671;SDS011;10495;50.922;4.760;2023-09-18T06:19:42;2.93;;;1.50;;
20671;SDS011;10495;50.922;4.760;2023-09-18T06:22:08;3.00;;;1.90;;
20671;SDS011;10495;50.922;4.760;2023-09-18T06:24:34;3.53;;;1.80;;
20671;SDS011;10495;50.922;4.760;2023-09-18T06:27:00;2.27;;;1.83;;
20671;SDS011;10495;50.922;4.760;2023-09-18T06:29:25;5.10;;;1.73;;
20671;SDS011;10495;50.922;4.760;2023-09-18T06:31:51;1.70;;;1.43;;
20671;SDS011;10495;50.922;4.760;2023-09-18T06:34:16;4.60;;;1.43;;
20671;SDS011;10495;50.922;4.760;2023-09-18T06:36:42;2.97;;;1.50;;
20671;SDS011;10495;50.922;4.760;2023-09-18T06:39:08;2.90;;;1.67;;
20671;SDS011;10495;50.922;4.760;2023-09-18T06:41:34;2.63;;;1.70;;
20671;SDS011;10495;50.922;4.760;2023-09-18T06:44:00;3.70;;;1.73;;
20671;SDS011;10495;50.922;4.760;2023-09-18T06:46:28;4.67;;;1.80;;
20671;SDS011;10495;50.922;4.760;2023-09-18T06:48:55;4.23;;;1.80;;
20671;SDS011;10495;50.922;4.760;2023-09-18T06:51:21;3.10;;;1.53;;
20671;SDS011;10495;50.922;4.760;2023-09-18T06:53:46;3.93;;;1.80;;
20671;SDS011;10495;50.922;4.760;2023-09-18T06:56:12;2.50;;;1.70;;
20671;SDS011;10495;50.922;4.760;2023-09-18T06:58:38;5.17;;;1.57;;
20671;SDS011;10495;50.922;4.760;2023-09-18T07:01:04;2.90;;;1.80;;
20671;SDS011;10495;50.922;4.760;2023-09-18T07:03:32;2.57;;;1.90;;
20671;SDS011;10495;50.922;4.760;2023-09-18T07:05:59;1.77;;;1.50;;
20671;SDS011;10495;50.922;4.760;2023-09-18T07:08:25;4.70;;;1.60;;
20671;SDS011;10495;50.922;4.760;2023-09-18T07:10:51;2.80;;;1.60;;
20671;SDS011;10495;50.922;4.760;2023-09-18T07:13:17;2.53;;;1.60;;
20671;SDS011;10495;50.922;4.760;2023-09-18T07:15:42;2.13;;;1.50;;
20671;SDS011;10495;50.922;4.760;2023-09-18T07:18:09;3.00;;;1.87;;
20671;SDS011;10495;50.922;4.760;2023-09-18T07:20:39;3.40;;;2.10;;
20671;SDS011;10495;50.922;4.760;2023-09-18T07:23:05;2.23;;;1.50;;
20671;SDS011;10495;50.922;4.760;2023-09-18T07:25:30;1.97;;;1.60;;
20671;SDS011;10495;50.922;4.760;2023-09-18T07:27:56;4.00;;;2.03;;
20671;SDS011;10495;50.922;4.760;2023-09-18T07:30:22;7.47;;;2.20;;
20671;SDS011;10495;50.922;4.760;2023-09-18T07:32:51;5.13;;;1.87;;
20671;SDS011;10495;50.922;4.760;2023-09-18T07:35:23;3.53;;;2.23;;
20671;SDS011;10495;50.922;4.760;2023-09-18T07:37:52;6.77;;;2.50;;
20671;SDS011;10495;50.922;4.760;2023-09-18T07:40:18;4.10;;;2.20;;
20671;SDS011;10495;50.922;4.760;2023-09-18T07:42:43;5.80;;;2.37;;
20671;SDS011;10495;50.922;4.760;2023-09-18T07:45:12;4.30;;;2.17;;
20671;SDS011;10495;50.922;4.760;2023-09-18T07:47:38;7.93;;;2.30;;
20671;SDS011;10495;50.922;4.760;2023-09-18T07:50:04;4.77;;;2.17;;
20671;SDS011;10495;50.922;4.760;2023-09-18T07:52:30;3.63;;;2.08;;
20671;SDS011;10495;50.922;4.760;2023-09-18T07:54:56;2.50;;;2.00;;
20671;SDS011;10495;50.922;4.760;2023-09-18T07:57:26;4.30;;;2.07;;
20671;SDS011;10495;50.922;4.760;2023-09-18T07:59:57;2.58;;;2.03;;
20671;SDS011;10495;50.922;4.760;2023-09-18T08:02:23;2.30;;;1.65;;
20671;SDS011;10495;50.922;4.760;2023-09-18T08:04:50;3.15;;;1.90;;
20671;SDS011;10495;50.922;4.760;2023-09-18T08:07:18;3.53;;;1.90;;
20671;SDS011;10495;50.922;4.760;2023-09-18T08:09:44;4.25;;;2.08;;
20671;SDS011;10495;50.922;4.760;2023-09-18T08:12:12;4.82;;;2.20;;
20671;SDS011;10495;50.922;4.760;2023-09-18T08:14:38;2.50;;;1.88;;
20671;SDS011;10495;50.922;4.760;2023-09-18T08:17:04;3.47;;;1.58;;
20671;SDS011;10495;50.922;4.760;2023-09-18T08:19:30;3.97;;;1.77;;
20671;SDS011;10495;50.922;4.760;2023-09-18T08:21:57;4.38;;;2.30;;
20671;SDS011;10495;50.922;4.760;2023-09-18T08:24:24;3.53;;;1.73;;
20671;SDS011;10495;50.922;4.760;2023-09-18T08:26:50;4.18;;;1.52;;
20671;SDS011;10495;50.922;4.760;2023-09-18T08:29:16;5.05;;;2.05;;
20671;SDS011;10495;50.922;4.760;2023-09-18T08:31:43;5.38;;;2.20;;
20671;SDS011;10495;50.922;4.760;2023-09-18T08:34:09;2.90;;;1.83;;
20671;SDS011;10495;50.922;4.760;2023-09-18T08:36:34;3.95;;;1.80;;
20671;SDS011;10495;50.922;4.760;2023-09-18T08:39:00;5.97;;;1.77;;
20671;SDS011;10495;50.922;4.760;2023-09-18T08:41:28;2.10;;;1.60;;
20671;SDS011;10495;50.922;4.760;2023-09-18T08:43:56;3.40;;;2.03;;
20671;SDS011;10495;50.922;4.760;2023-09-18T08:46:29;3.78;;;2.00;;
20671;SDS011;10495;50.922;4.760;2023-09-18T08:48:55;3.40;;;2.05;;
20671;SDS011;10495;50.922;4.760;2023-09-18T08:51:22;3.95;;;2.28;;
20671;SDS011;10495;50.922;4.760;2023-09-18T08:53:48;3.90;;;2.38;;
20671;SDS011;10495;50.922;4.760;2023-09-18T08:56:14;2.58;;;2.00;;
20671;SDS011;10495;50.922;4.760;2023-09-18T08:58:42;6.70;;;2.33;;
20671;SDS011;10495;50.922;4.760;2023-09-18T09:01:09;3.88;;;2.47;;
20671;SDS011;10495;50.922;4.760;2023-09-18T09:03:39;3.88;;;2.20;;
20671;SDS011;10495;50.922;4.760;2023-09-18T09:06:05;7.47;;;2.50;;
20671;SDS011;10495;50.922;4.760;2023-09-18T09:08:32;4.68;;;2.38;;
20671;SDS011;10495;50.922;4.760;2023-09-18T09:10:58;5.28;;;2.53;;
20671;SDS011;10495;50.922;4.760;2023-09-18T09:13:24;5.10;;;2.65;;
20671;SDS011;10495;50.922;4.760;2023-09-18T09:15:54;7.38;;;2.97;;
20671;SDS011;10495;50.922;4.760;2023-09-18T09:18:22;2.35;;;2.13;;
20671;SDS011;10495;50.922;4.760;2023-09-18T09:20:59;6.00;;;2.60;;
20671;SDS011;10495;50.922;4.760;2023-09-18T09:23:44;5.55;;;2.40;;
20671;SDS011;10495;50.922;4.760;2023-09-18T09:26:15;7.90;;;2.40;;
20671;SDS011;10495;50.922;4.760;2023-09-18T09:28:42;4.10;;;2.88;;
20671;SDS011;10495;50.922;4.760;2023-09-18T09:31:09;9.00;;;2.67;;
20671;SDS011;10495;50.922;4.760;2023-09-18T09:33:35;4.15;;;2.47;;
20671;SDS011;10495;50.922;4.760;2023-09-18T09:36:04;6.18;;;3.10;;
20671;SDS011;10495;50.922;4.760;2023-09-18T09:38:31;4.57;;;2.90;;
20671;SDS011;10495;50.922;4.760;2023-09-18T09:40:59;6.30;;;2.95;;
20671;SDS011;10495;50.922;4.760;2023-09-18T09:43:26;2.90;;;2.38;;
20671;SDS011;10495;50.922;4.760;2023-09-18T09:46:01;4.55;;;2.40;;
20671;SDS011;10495;50.922;4.760;2023-09-18T09:48:28;8.75;;;2.90;;
20671;SDS011;10495;50.922;4.760;2023-09-18T09:50:58;5.60;;;3.05;;
20671;SDS011;10495;50.922;4.760;2023-09-18T09:53:44;4.40;;;2.60;;
20671;SDS011;10495;50.922;4.760;2023-09-18T09:56:16;4.03;;;2.85;;
20671;SDS011;10495;50.922;4.760;2023-09-18T09:59:02;4.20;;;2.92;;
20671;SDS011;10495;50.922;4.760;2023-09-18T10:01:35;4.43;;;2.60;;
20671;SDS011;10495;50.922;4.760;2023-09-18T10:04:04;4.65;;;2.80;;
20671;SDS011;10495;50.922;4.760;2023-09-18T10:06:33;4.47;;;3.15;;
20671;SDS011;10495;50.922;4.760;2023-09-18T10:09:03;3.72;;;3.08;;
20671;SDS011;10495;50.922;4.760;2023-09-18T10:11:32;4.75;;;3.53;;
20671;SDS011;10495;50.922;4.760;2023-09-18T10:14:04;4.15;;;2.58;;
20671;SDS011;10495;50.922;4.760;2023-09-18T10:16:37;3.65;;;2.58;;
20671;SDS011;10495;50.922;4.760;2023-09-18T10:24:24;6.20;;;3.67;;
20671;SDS011;10495;50.922;4.760;2023-09-18T10:26:51;3.70;;;2.83;;
20671;SDS011;10495;50.922;4.760;2023-09-18T10:29:19;5.50;;;2.75;;
20671;SDS011;10495;50.922;4.760;2023-09-18T10:31:46;4.22;;;2.63;;
20671;SDS011;10495;50.922;4.760;2023-09-18T10:34:12;2.85;;;2.50;;
20671;SDS011;10495;50.922;4.760;2023-09-18T10:36:41;5.53;;;2.80;;
20671;SDS011;10495;50.922;4.760;2023-09-18T10:39:09;4.72;;;2.40;;
20671;SDS011;10495;50.922;4.760;2023-09-18T10:41:37;3.20;;;2.88;;
20671;SDS011;10495;50.922;4.760;2023-09-18T10:44:05;3.00;;;2.53;;
20671;SDS011;10495;50.922;4.760;2023-09-18T10:46:32;4.72;;;2.60;;
20671;SDS011;10495;50.922;4.760;2023-09-18T10:48:59;2.47;;;2.28;;
20671;SDS011;10495;50.922;4.760;2023-09-18T10:51:26;4.65;;;2.67;;
20671;SDS011;10495;50.922;4.760;2023-09-18T10:53:53;4.80;;;3.40;;
20671;SDS011;10495;50.922;4.760;2023-09-18T10:56:21;3.88;;;2.63;;
20671;SDS011;10495;50.922;4.760;2023-09-18T10:58:47;4.07;;;2.88;;
20671;SDS011;10495;50.922;4.760;2023-09-18T11:01:23;2.67;;;2.10;;
20671;SDS011;10495;50.922;4.760;2023-09-18T11:03:52;5.15;;;2.60;;
20671;SDS011;10495;50.922;4.760;2023-09-18T11:06:17;4.97;;;2.65;;
20671;SDS011;10495;50.922;4.760;2023-09-18T11:08:46;6.10;;;2.63;;
20671;SDS011;10495;50.922;4.760;2023-09-18T11:11:16;4.35;;;2.80;;
20671;SDS011;10495;50.922;4.760;2023-09-18T11:13:48;5.55;;;2.65;;
20671;SDS011;10495;50.922;4.760;2023-09-18T11:21:26;2.83;;;2.53;;
20671;SDS011;10495;50.922;4.760;2023-09-18T11:24:06;7.90;;;3.60;;
20671;SDS011;10495;50.922;4.760;2023-09-18T11:26:45;3.42;;;2.65;;
20671;SDS011;10495;50.922;4.760;2023-09-18T11:29:22;5.35;;;2.38;;
20671;SDS011;10495;50.922;4.760;2023-09-18T11:31:52;5.13;;;3.15;;
20671;SDS011;10495;50.922;4.760;2023-09-18T11:36:56;7.45;;;3.00;;
20671;SDS011;10495;50.922;4.760;2023-09-18T11:44:35;3.63;;;2.50;;
20671;SDS011;10495;50.922;4.760;2023-09-18T11:47:06;6.88;;;2.65;;
20671;SDS011;10495;50.922;4.760;2023-09-18T11:49:37;2.78;;;2.42;;
20671;SDS011;10495;50.922;4.760;2023-09-18T11:52:06;6.32;;;2.92;;
20671;SDS011;10495;50.922;4.760;2023-09-18T11:54:32;5.20;;;2.72;;
20671;SDS011;10495;50.922;4.760;2023-09-18T11:57:02;4.32;;;2.88;;
20671;SDS011;10495;50.922;4.760;2023-09-18T11:59:36;5.95;;;2.58;;
20671;SDS011;10495;50.922;4.760;2023-09-18T12:02:03;4.30;;;2.92;;
20671;SDS011;10495;50.922;4.760;2023-09-18T12:04:31;6.30;;;2.78;;
20671;SDS011;10495;50.922;4.760;2023-09-18T12:06:58;3.80;;;2.55;;
20671;SDS011;10495;50.922;4.760;2023-09-18T12:09:28;3.17;;;2.88;;
20671;SDS011;10495;50.922;4.760;2023-09-18T12:11:58;7.97;;;3.10;;
20671;SDS011;10495;50.922;4.760;2023-09-18T12:14:29;3.38;;;2.97;;
20671;SDS011;10495;50.922;4.760;2023-09-18T12:16:59;4.68;;;2.72;;
20671;SDS011;10495;50.922;4.760;2023-09-18T12:19:29;3.55;;;2.47;;
20671;SDS011;10495;50.922;4.760;2023-09-18T12:21:55;5.22;;;3.03;;
20671;SDS011;10495;50.922;4.760;2023-09-18T12:24:24;3.80;;;2.65;;
20671;SDS011;10495;50.922;4.760;2023-09-18T12:26:51;4.30;;;2.90;;
20671;SDS011;10495;50.922;4.760;2023-09-18T12:29:17;3.58;;;2.45;;
20671;SDS011;10495;50.922;4.760;2023-09-18T12:31:44;5.80;;;2.20;;
20671;SDS011;10495;50.922;4.760;2023-09-18T12:34:20;3.42;;;2.60;;
20671;SDS011;10495;50.922;4.760;2023-09-18T12:36:46;5.03;;;2.35;;
20671;SDS011;10495;50.922;4.760;2023-09-18T12:39:16;4.97;;;2.58;;
20671;SDS011;10495;50.922;4.760;2023-09-18T12:41:46;6.97;;;2.13;;
20671;SDS011;10495;50.922;4.760;2023-09-18T12:44:12;3.72;;;2.53;;
20671;SDS011;10495;50.922;4.760;2023-09-18T12:46:40;4.30;;;1.98;;
20671;SDS011;10495;50.922;4.760;2023-09-18T12:51:42;4.18;;;2.25;;
20671;SDS011;10495;50.922;4.760;2023-09-18T12:54:09;2.42;;;2.22;;
20671;SDS011;10495;50.922;4.760;2023-09-18T12:56:39;3.17;;;2.33;;
20671;SDS011;10495;50.922;4.760;2023-09-18T12:59:06;4.70;;;2.15;;
20671;SDS011;10495;50.922;4.760;2023-09-18T13:01:32;2.60;;;2.03;;
20671;SDS011;10495;50.922;4.760;2023-09-18T13:03:57;4.53;;;2.65;;
20671;SDS011;10495;50.922;4.760;2023-09-18T13:06:30;6.47;;;2.25;;
20671;SDS011;10495;50.922;4.760;2023-09-18T13:08:56;5.10;;;2.50;;
20671;SDS011;10495;50.922;4.760;2023-09-18T13:11:53;2.45;;;1.67;;
20671;SDS011;10495;50.922;4.760;2023-09-18T13:14:20;3.17;;;2.17;;
20671;SDS011;10495;50.922;4.760;2023-09-18T13:16:46;3.20;;;2.08;;
20671;SDS011;10495;50.922;4.760;2023-09-18T13:19:12;5.13;;;2.33;;
20671;SDS011;10495;50.922;4.760;2023-09-18T13:21:37;2.85;;;2.05;;
20671;SDS011;10495;50.922;4.760;2023-09-18T13:24:06;3.38;;;1.92;;
20671;SDS011;10495;50.922;4.760;2023-09-18T13:26:32;2.85;;;2.00;;
20671;SDS011;10495;50.922;4.760;2023-09-18T13:28:57;2.65;;;1.98;;
20671;SDS011;10495;50.922;4.760;2023-09-18T13:31:23;4.22;;;2.10;;
20671;SDS011;10495;50.922;4.760;2023-09-18T13:33:48;2.90;;;1.88;;
20671;SDS011;10495;50.922;4.760;2023-09-18T13:36:14;3.65;;;2.00;;
20671;SDS011;10495;50.922;4.760;2023-09-18T13:38:40;2.35;;;2.00;;
20671;SDS011;10495;50.922;4.760;2023-09-18T13:41:06;2.97;;;2.20;;
20671;SDS011;10495;50.922;4.760;2023-09-18T13:43:31;3.03;;;2.17;;
20671;SDS011;10495;50.922;4.760;2023-09-18T13:45:59;3.55;;;1.95;;
20671;SDS011;10495;50.922;4.760;2023-09-18T13:48:25;4.53;;;1.92;;
20671;SDS011;10495;50.922;4.760;2023-09-18T13:50:51;6.97;;;2.05;;
20671;SDS011;10495;50.922;4.760;2023-09-18T13:53:17;3.17;;;1.95;;
20671;SDS011;10495;50.922;4.760;2023-09-18T13:55:43;2.38;;;1.88;;
20671;SDS011;10495;50.922;4.760;2023-09-18T13:58:09;4.72;;;2.17;;
20671;SDS011;10495;50.922;4.760;2023-09-18T14:00:34;5.13;;;2.10;;
20671;SDS011;10495;50.922;4.760;2023-09-18T14:03:00;2.38;;;1.75;;
20671;SDS011;10495;50.922;4.760;2023-09-18T14:05:28;2.85;;;1.80;;
20671;SDS011;10495;50.922;4.760;2023-09-18T14:07:54;2.95;;;2.35;;
20671;SDS011;10495;50.922;4.760;2023-09-18T14:10:25;2.85;;;2.10;;
20671;SDS011;10495;50.922;4.760;2023-09-18T14:12:52;5.00;;;3.30;;
20671;SDS011;10495;50.922;4.760;2023-09-18T14:15:17;3.40;;;2.28;;
20671;SDS011;10495;50.922;4.760;2023-09-18T14:17:43;7.53;;;3.25;;
20671;SDS011;10495;50.922;4.760;2023-09-18T14:20:09;3.58;;;2.55;;
20671;SDS011;10495;50.922;4.760;2023-09-18T14:22:35;1.67;;;1.48;;
20671;SDS011;10495;50.922;4.760;2023-09-18T14:25:01;3.55;;;1.70;;
20671;SDS011;10495;50.922;4.760;2023-09-18T14:27:31;1.70;;;1.60;;
20671;SDS011;10495;50.922;4.760;2023-09-18T14:29:57;2.03;;;1.50;;
20671;SDS011;10495;50.922;4.760;2023-09-18T14:32:23;3.92;;;2.22;;
20671;SDS011;10495;50.922;4.760;2023-09-18T14:34:48;2.42;;;1.58;;
20671;SDS011;10495;50.922;4.760;2023-09-18T14:37:14;3.40;;;1.83;;
20671;SDS011;10495;50.922;4.760;2023-09-18T14:39:40;2.20;;;1.92;;
20671;SDS011;10495;50.922;4.760;2023-09-18T14:42:05;4.32;;;1.77;;
20671;SDS011;10495;50.922;4.760;2023-09-18T14:44:31;7.60;;;2.00;;
20671;SDS011;10495;50.922;4.760;2023-09-18T14:46:57;4.47;;;2.20;;
20671;SDS011;10495;50.922;4.760;2023-09-18T14:49:24;3.05;;;1.83;;
20671;SDS011;10495;50.922;4.760;2023-09-18T14:51:52;3.92;;;1.85;;
20671;SDS011;10495;50.922;4.760;2023-09-18T14:54:19;8.88;;;2.20;;
20671;SDS011;10495;50.922;4.760;2023-09-18T14:56:45;2.47;;;2.03;;
20671;SDS011;10495;50.922;4.760;2023-09-18T14:59:12;3.13;;;1.98;;
20671;SDS011;10495;50.922;4.760;2023-09-18T15:01:37;3.17;;;1.75;;
20671;SDS011;10495;50.922;4.760;2023-09-18T15:04:03;7.32;;;2.20;;
20671;SDS011;10495;50.922;4.760;2023-09-18T15:06:29;4.05;;;2.13;;
20671;SDS011;10495;50.922;4.760;2023-09-18T15:08:55;3.75;;;2.25;;
20671;SDS011;10495;50.922;4.760;2023-09-18T15:11:20;4.53;;;2.05;;
20671;SDS011;10495;50.922;4.760;2023-09-18T15:13:46;10.60;;;2.55;;